sensor_id;sensor_type;location;lat;lon;timestamp;pressure;altitude;pressure_sealevel;temperature;humidity
34506;BME280;20748;42.632;23.198;2023-04-01T00:01:15;91204.56;;;12.15;44.92
34506;BME280;20748;42.632;23.198;2023-04-01T00:03:48;91194.22;;;12.06;45.05
34506;BME280;20748;42.632;23.198;2023-04-01T00:06:20;91202.16;;;12.10;44.84
34506;BME280;20748;42.632;23.198;2023-04-01T00:08:53;91189.44;;;12.08;44.90
34506;BME280;20748;42.632;23.198;2023-04-01T00:11:26;91191.28;;;12.08;45.15
34506;BME280;20748;42.632;23.198;2023-04-01T00:14:00;91192.56;;;12.02;44.35
34506;BME280;20748;42.632;23.198;2023-04-01T00:16:32;91194.75;;;12.00;44.58
34506;BME280;20748;42.632;23.198;2023-04-01T00:19:05;91201.69;;;11.95;44.83
34506;BME280;20748;42.632;23.198;2023-04-01T00:21:37;91191.91;;;12.05;44.96
34506;BME280;20748;42.632;23.198;2023-04-01T00:24:10;91192.34;;;11.94;44.68
34506;BME280;20748;42.632;23.198;2023-04-01T00:26:42;91193.19;;;11.86;44.57
34506;BME280;20748;42.632;23.198;2023-04-01T00:29:16;91201.50;;;12.01;44.25
34506;BME280;20748;42.632;23.198;2023-04-01T00:31:48;91191.25;;;11.95;44.28
34506;BME280;20748;42.632;23.198;2023-04-01T00:34:21;91186.03;;;12.08;44.94
34506;BME280;20748;42.632;23.198;2023-04-01T00:36:53;91174.91;;;11.99;44.63
34506;BME280;20748;42.632;23.198;2023-04-01T00:39:28;91166.72;;;12.00;44.82
34506;BME280;20748;42.632;23.198;2023-04-01T00:42:02;91170.88;;;12.01;44.26
34506;BME280;20748;42.632;23.198;2023-04-01T00:44:37;91167.75;;;12.08;44.54
34506;BME280;20748;42.632;23.198;2023-04-01T00:47:10;91167.38;;;11.85;45.21
34506;BME280;20748;42.632;23.198;2023-04-01T00:49:45;91166.19;;;11.82;44.98
34506;BME280;20748;42.632;23.198;2023-04-01T00:52:21;91163.22;;;11.84;45.49
34506;BME280;20748;42.632;23.198;2023-04-01T00:54:57;91161.91;;;11.77;45.27
34506;BME280;20748;42.632;23.198;2023-04-01T00:57:35;91154.75;;;11.74;44.50
34506;BME280;20748;42.632;23.198;2023-04-01T01:00:11;91148.53;;;11.79;44.31
34506;BME280;20748;42.632;23.198;2023-04-01T01:02:46;91143.53;;;11.86;44.08
34506;BME280;20748;42.632;23.198;2023-04-01T01:05:23;91130.91;;;11.88;44.05
34506;BME280;20748;42.632;23.198;2023-04-01T01:08:03;91136.34;;;11.71;43.84
34506;BME280;20748;42.632;23.198;2023-04-01T01:10:39;91129.16;;;11.67;43.92
34506;BME280;20748;42.632;23.198;2023-04-01T01:13:17;91129.72;;;11.73;44.06
34506;BME280;20748;42.632;23.198;2023-04-01T01:15:57;91122.81;;;11.68;43.66
34506;BME280;20748;42.632;23.198;2023-04-01T01:18:35;91100.50;;;11.71;43.54
34506;BME280;20748;42.632;23.198;2023-04-01T01:21:21;91097.69;;;11.76;43.44
34506;BME280;20748;42.632;23.198;2023-04-01T01:24:22;91092.88;;;11.66;43.78
34506;BME280;20748;42.632;23.198;2023-04-01T01:27:06;91079.41;;;11.64;43.82
34506;BME280;20748;42.632;23.198;2023-04-01T01:29:59;91092.03;;;11.74;43.44
34506;BME280;20748;42.632;23.198;2023-04-01T01:33:24;91097.59;;;11.73;43.47
34506;BME280;20748;42.632;23.198;2023-04-01T01:36:02;91093.56;;;11.50;43.98
34506;BME280;20748;42.632;23.198;2023-04-01T01:38:38;91097.56;;;11.48;43.80
34506;BME280;20748;42.632;23.198;2023-04-01T01:41:12;91098.97;;;11.45;43.87
34506;BME280;20748;42.632;23.198;2023-04-01T01:43:50;91101.19;;;11.55;43.43
34506;BME280;20748;42.632;23.198;2023-04-01T01:46:26;91092.47;;;11.51;43.93
34506;BME280;20748;42.632;23.198;2023-04-01T01:49:00;91090.84;;;11.59;43.33
34506;BME280;20748;42.632;23.198;2023-04-01T01:51:34;91088.53;;;11.58;43.39
34506;BME280;20748;42.632;23.198;2023-04-01T01:54:12;91084.50;;;11.48;43.21
34506;BME280;20748;42.632;23.198;2023-04-01T01:56:47;91078.84;;;11.58;42.60
34506;BME280;20748;42.632;23.198;2023-04-01T01:59:22;91077.88;;;11.63;42.77
34506;BME280;20748;42.632;23.198;2023-04-01T02:01:56;91074.28;;;11.80;42.93
34506;BME280;20748;42.632;23.198;2023-04-01T02:04:30;91073.28;;;11.72;42.70
34506;BME280;20748;42.632;23.198;2023-04-01T02:07:07;91078.41;;;11.81;42.63
34506;BME280;20748;42.632;23.198;2023-04-01T02:09:40;91075.56;;;11.86;42.74
34506;BME280;20748;42.632;23.198;2023-04-01T02:12:15;91069.59;;;11.86;42.73
34506;BME280;20748;42.632;23.198;2023-04-01T02:14:52;91074.72;;;11.82;42.41
34506;BME280;20748;42.632;23.198;2023-04-01T02:17:29;91063.28;;;11.87;42.62
34506;BME280;20748;42.632;23.198;2023-04-01T02:20:05;91057.50;;;11.81;42.61
34506;BME280;20748;42.632;23.198;2023-04-01T02:22:43;91060.88;;;11.81;42.68
34506;BME280;20748;42.632;23.198;2023-04-01T02:25:19;91060.56;;;11.83;42.82
34506;BME280;20748;42.632;23.198;2023-04-01T02:27:53;91059.25;;;11.77;42.41
34506;BME280;20748;42.632;23.198;2023-04-01T02:30:29;91059.59;;;11.75;42.81
34506;BME280;20748;42.632;23.198;2023-04-01T02:33:03;91061.53;;;11.66;42.74
34506;BME280;20748;42.632;23.198;2023-04-01T02:35:37;91064.03;;;11.75;42.04
34506;BME280;20748;42.632;23.198;2023-04-01T02:38:10;91065.81;;;11.71;42.22
34506;BME280;20748;42.632;23.198;2023-04-01T02:40:45;91071.75;;;11.84;42.39
34506;BME280;20748;42.632;23.198;2023-04-01T02:43:18;91075.16;;;11.84;41.94
34506;BME280;20748;42.632;23.198;2023-04-01T02:45:51;91076.13;;;11.79;42.00
34506;BME280;20748;42.632;23.198;2023-04-01T02:48:23;91078.41;;;11.68;42.65
34506;BME280;20748;42.632;23.198;2023-04-01T02:50:56;91077.44;;;11.61;42.35
34506;BME280;20748;42.632;23.198;2023-04-01T02:53:29;91086.25;;;11.56;42.60
34506;BME280;20748;42.632;23.198;2023-04-01T02:56:01;91096.16;;;11.63;42.40
34506;BME280;20748;42.632;23.198;2023-04-01T02:58:34;91096.59;;;11.65;43.17
34506;BME280;20748;42.632;23.198;2023-04-01T03:01:07;91091.91;;;11.58;43.94
34506;BME280;20748;42.632;23.198;2023-04-01T03:03:40;91087.13;;;11.48;44.27
34506;BME280;20748;42.632;23.198;2023-04-01T03:06:14;91098.66;;;11.59;45.14
34506;BME280;20748;42.632;23.198;2023-04-01T03:08:47;91098.31;;;11.48;44.96
34506;BME280;20748;42.632;23.198;2023-04-01T03:11:20;91093.88;;;11.49;44.67
34506;BME280;20748;42.632;23.198;2023-04-01T03:13:52;91111.59;;;11.43;45.14
34506;BME280;20748;42.632;23.198;2023-04-01T03:16:25;91113.44;;;11.43;46.79
34506;BME280;20748;42.632;23.198;2023-04-01T03:18:57;91109.94;;;11.38;48.51
34506;BME280;20748;42.632;23.198;2023-04-01T03:21:31;91111.94;;;11.08;52.53
34506;BME280;20748;42.632;23.198;2023-04-01T03:24:06;91104.34;;;10.81;54.00
34506;BME280;20748;42.632;23.198;2023-04-01T03:26:39;91090.06;;;10.87;55.20
34506;BME280;20748;42.632;23.198;2023-04-01T03:29:11;91077.66;;;10.97;57.47
34506;BME280;20748;42.632;23.198;2023-04-01T03:31:45;91076.59;;;11.10;57.59
34506;BME280;20748;42.632;23.198;2023-04-01T03:34:17;91063.34;;;11.15;59.97
34506;BME280;20748;42.632;23.198;2023-04-01T03:36:50;91057.38;;;11.03;60.03
34506;BME280;20748;42.632;23.198;2023-04-01T03:39:23;91044.94;;;10.99;59.45
34506;BME280;20748;42.632;23.198;2023-04-01T03:41:56;91030.78;;;10.88;59.52
34506;BME280;20748;42.632;23.198;2023-04-01T03:44:30;91018.16;;;10.90;57.33
34506;BME280;20748;42.632;23.198;2023-04-01T03:47:03;91013.84;;;10.94;58.06
34506;BME280;20748;42.632;23.198;2023-04-01T03:49:36;91010.69;;;11.01;58.59
34506;BME280;20748;42.632;23.198;2023-04-01T03:52:09;90989.81;;;11.01;60.17
34506;BME280;20748;42.632;23.198;2023-04-01T03:54:43;90977.19;;;11.03;59.59
34506;BME280;20748;42.632;23.198;2023-04-01T03:57:15;90973.19;;;11.06;60.87
34506;BME280;20748;42.632;23.198;2023-04-01T03:59:48;90970.34;;;10.98;60.72
34506;BME280;20748;42.632;23.198;2023-04-01T04:02:20;90966.97;;;10.98;62.16
34506;BME280;20748;42.632;23.198;2023-04-01T04:04:53;90979.59;;;10.96;61.16
34506;BME280;20748;42.632;23.198;2023-04-01T04:07:25;90963.03;;;10.79;60.03
34506;BME280;20748;42.632;23.198;2023-04-01T04:10:07;90963.16;;;10.83;59.31
34506;BME280;20748;42.632;23.198;2023-04-01T04:12:40;90961.94;;;10.80;57.76
34506;BME280;20748;42.632;23.198;2023-04-01T04:15:12;90960.09;;;10.81;58.10
34506;BME280;20748;42.632;23.198;2023-04-01T04:17:45;90952.38;;;10.84;55.63
34506;BME280;20748;42.632;23.198;2023-04-01T04:20:19;90946.09;;;10.85;57.07
34506;BME280;20748;42.632;23.198;2023-04-01T04:22:51;90947.16;;;10.84;53.40
34506;BME280;20748;42.632;23.198;2023-04-01T04:25:24;90951.63;;;10.84;51.68
34506;BME280;20748;42.632;23.198;2023-04-01T04:27:57;90947.72;;;10.90;51.95
34506;BME280;20748;42.632;23.198;2023-04-01T04:30:29;90936.53;;;10.90;50.10
34506;BME280;20748;42.632;23.198;2023-04-01T04:33:01;90944.88;;;10.95;51.18
34506;BME280;20748;42.632;23.198;2023-04-01T04:35:34;90939.34;;;10.97;48.98
34506;BME280;20748;42.632;23.198;2023-04-01T04:38:07;90931.41;;;11.06;48.82
34506;BME280;20748;42.632;23.198;2023-04-01T04:40:41;90927.81;;;11.10;49.75
34506;BME280;20748;42.632;23.198;2023-04-01T04:43:16;90917.63;;;11.05;47.53
34506;BME280;20748;42.632;23.198;2023-04-01T04:45:49;90913.81;;;11.15;45.92
34506;BME280;20748;42.632;23.198;2023-04-01T04:48:21;90915.63;;;11.14;44.92
34506;BME280;20748;42.632;23.198;2023-04-01T04:50:53;90907.06;;;11.14;43.90
34506;BME280;20748;42.632;23.198;2023-04-01T04:53:28;90908.13;;;11.25;44.30
34506;BME280;20748;42.632;23.198;2023-04-01T04:56:02;90905.97;;;11.27;44.56
34506;BME280;20748;42.632;23.198;2023-04-01T04:58:48;90904.56;;;11.18;44.48
34506;BME280;20748;42.632;23.198;2023-04-01T05:01:25;90893.53;;;11.24;44.40
34506;BME280;20748;42.632;23.198;2023-04-01T05:03:57;90886.47;;;11.25;44.51
34506;BME280;20748;42.632;23.198;2023-04-01T05:06:30;90894.00;;;11.26;43.99
34506;BME280;20748;42.632;23.198;2023-04-01T05:09:03;90889.50;;;11.27;43.84
34506;BME280;20748;42.632;23.198;2023-04-01T05:11:36;90879.16;;;11.31;44.15
34506;BME280;20748;42.632;23.198;2023-04-01T05:14:12;90877.22;;;11.40;44.32
34506;BME280;20748;42.632;23.198;2023-04-01T05:16:46;90868.72;;;11.31;43.73
34506;BME280;20748;42.632;23.198;2023-04-01T05:19:19;90879.09;;;11.14;44.20
34506;BME280;20748;42.632;23.198;2023-04-01T05:21:52;90878.97;;;11.23;44.51
34506;BME280;20748;42.632;23.198;2023-04-01T05:24:25;90874.84;;;11.22;44.07
34506;BME280;20748;42.632;23.198;2023-04-01T05:26:58;90871.91;;;11.24;44.54
34506;BME280;20748;42.632;23.198;2023-04-01T05:29:32;90874.41;;;11.20;44.67
34506;BME280;20748;42.632;23.198;2023-04-01T05:32:09;90869.31;;;11.24;44.16
34506;BME280;20748;42.632;23.198;2023-04-01T05:34:42;90871.22;;;11.39;44.73
34506;BME280;20748;42.632;23.198;2023-04-01T05:37:15;90889.25;;;11.45;44.54
34506;BME280;20748;42.632;23.198;2023-04-01T05:39:47;90876.63;;;11.59;43.70
34506;BME280;20748;42.632;23.198;2023-04-01T05:42:20;90865.25;;;11.67;43.55
34506;BME280;20748;42.632;23.198;2023-04-01T05:44:52;90858.94;;;11.68;44.20
34506;BME280;20748;42.632;23.198;2023-04-01T05:47:45;90844.53;;;11.75;43.48
34506;BME280;20748;42.632;23.198;2023-04-01T05:50:18;90839.03;;;11.92;43.68
34506;BME280;20748;42.632;23.198;2023-04-01T05:52:50;90836.94;;;11.98;43.24
34506;BME280;20748;42.632;23.198;2023-04-01T05:55:23;90847.38;;;12.11;42.78
34506;BME280;20748;42.632;23.198;2023-04-01T05:57:56;90845.69;;;12.18;41.77
34506;BME280;20748;42.632;23.198;2023-04-01T06:00:29;90844.84;;;12.46;41.43
34506;BME280;20748;42.632;23.198;2023-04-01T06:03:03;90833.31;;;12.64;41.34
34506;BME280;20748;42.632;23.198;2023-04-01T06:05:39;90836.50;;;12.89;40.63
34506;BME280;20748;42.632;23.198;2023-04-01T06:08:13;90829.88;;;12.95;40.48
34506;BME280;20748;42.632;23.198;2023-04-01T06:10:55;90834.50;;;13.18;40.06
34506;BME280;20748;42.632;23.198;2023-04-01T06:13:47;90847.16;;;13.16;39.86
34506;BME280;20748;42.632;23.198;2023-04-01T06:16:29;90847.78;;;13.09;40.49
34506;BME280;20748;42.632;23.198;2023-04-01T06:19:18;90852.72;;;13.14;40.09
34506;BME280;20748;42.632;23.198;2023-04-01T06:22:16;90851.63;;;13.15;40.21
34506;BME280;20748;42.632;23.198;2023-04-01T06:28:36;90849.56;;;13.25;40.23
34506;BME280;20748;42.632;23.198;2023-04-01T06:31:20;90834.50;;;13.38;40.57
34506;BME280;20748;42.632;23.198;2023-04-01T06:34:13;90838.38;;;13.08;40.41
34506;BME280;20748;42.632;23.198;2023-04-01T06:36:57;90811.72;;;13.02;40.90
34506;BME280;20748;42.632;23.198;2023-04-01T06:39:56;90821.59;;;13.29;41.00
34506;BME280;20748;42.632;23.198;2023-04-01T06:42:39;90840.41;;;13.15;40.74
34506;BME280;20748;42.632;23.198;2023-04-01T06:45:39;90829.91;;;13.15;40.88
34506;BME280;20748;42.632;23.198;2023-04-01T06:52:17;90829.66;;;13.20;41.33
34506;BME280;20748;42.632;23.198;2023-04-01T06:55:36;90818.22;;;13.28;39.53
34506;BME280;20748;42.632;23.198;2023-04-01T06:58:20;90812.16;;;13.24;39.81
34506;BME280;20748;42.632;23.198;2023-04-01T07:00:57;90803.81;;;13.19;40.45
34506;BME280;20748;42.632;23.198;2023-04-01T07:03:34;90808.81;;;13.08;40.15
34506;BME280;20748;42.632;23.198;2023-04-01T07:06:16;90812.69;;;13.14;39.62
34506;BME280;20748;42.632;23.198;2023-04-01T07:08:59;90813.09;;;13.16;40.65
34506;BME280;20748;42.632;23.198;2023-04-01T07:12:01;90814.41;;;13.06;40.09
34506;BME280;20748;42.632;23.198;2023-04-01T07:15:14;90810.81;;;13.14;41.43
34506;BME280;20748;42.632;23.198;2023-04-01T07:17:53;90818.88;;;13.06;40.48
34506;BME280;20748;42.632;23.198;2023-04-01T07:20:29;90831.69;;;13.11;41.39
34506;BME280;20748;42.632;23.198;2023-04-01T07:23:06;90836.47;;;13.25;40.54
34506;BME280;20748;42.632;23.198;2023-04-01T07:26:00;90823.03;;;13.26;40.25
34506;BME280;20748;42.632;23.198;2023-04-01T07:28:32;90804.72;;;13.26;40.00
34506;BME280;20748;42.632;23.198;2023-04-01T07:31:25;90834.25;;;13.43;40.76
34506;BME280;20748;42.632;23.198;2023-04-01T07:34:09;90830.84;;;13.42;40.50
34506;BME280;20748;42.632;23.198;2023-04-01T07:36:47;90838.00;;;13.26;40.02
34506;BME280;20748;42.632;23.198;2023-04-01T07:39:30;90829.94;;;13.35;40.46
34506;BME280;20748;42.632;23.198;2023-04-01T07:42:20;90824.91;;;13.26;40.95
34506;BME280;20748;42.632;23.198;2023-04-01T07:45:02;90827.63;;;13.29;40.44
34506;BME280;20748;42.632;23.198;2023-04-01T07:47:51;90827.44;;;13.22;41.29
34506;BME280;20748;42.632;23.198;2023-04-01T07:50:31;90820.03;;;13.08;40.71
34506;BME280;20748;42.632;23.198;2023-04-01T07:53:11;90813.03;;;13.12;41.03
34506;BME280;20748;42.632;23.198;2023-04-01T07:55:54;90816.38;;;13.29;41.22
34506;BME280;20748;42.632;23.198;2023-04-01T07:58:35;90809.47;;;13.40;41.18
34506;BME280;20748;42.632;23.198;2023-04-01T08:01:23;90812.34;;;13.51;41.17
34506;BME280;20748;42.632;23.198;2023-04-01T08:04:16;90783.34;;;13.44;41.30
34506;BME280;20748;42.632;23.198;2023-04-01T08:06:53;90788.53;;;13.21;41.26
34506;BME280;20748;42.632;23.198;2023-04-01T08:09:33;90798.50;;;13.35;41.45
34506;BME280;20748;42.632;23.198;2023-04-01T08:12:35;90800.38;;;13.34;41.43
34506;BME280;20748;42.632;23.198;2023-04-01T08:15:34;90785.97;;;13.44;41.85
34506;BME280;20748;42.632;23.198;2023-04-01T08:18:28;90774.78;;;13.27;41.28
34506;BME280;20748;42.632;23.198;2023-04-01T08:21:08;90770.47;;;13.35;41.01
34506;BME280;20748;42.632;23.198;2023-04-01T08:23:44;90749.50;;;13.35;40.94
34506;BME280;20748;42.632;23.198;2023-04-01T08:26:25;90750.97;;;13.52;40.07
34506;BME280;20748;42.632;23.198;2023-04-01T08:29:05;90746.66;;;13.64;41.26
34506;BME280;20748;42.632;23.198;2023-04-01T08:31:47;90746.59;;;13.80;41.00
34506;BME280;20748;42.632;23.198;2023-04-01T08:34:25;90724.16;;;13.82;40.43
34506;BME280;20748;42.632;23.198;2023-04-01T08:37:17;90709.06;;;13.99;39.56
34506;BME280;20748;42.632;23.198;2023-04-01T08:39:57;90711.25;;;13.93;38.76
34506;BME280;20748;42.632;23.198;2023-04-01T08:42:59;90715.94;;;14.07;39.35
34506;BME280;20748;42.632;23.198;2023-04-01T08:45:48;90720.47;;;14.10;38.79
34506;BME280;20748;42.632;23.198;2023-04-01T08:48:36;90707.78;;;14.13;38.51
34506;BME280;20748;42.632;23.198;2023-04-01T08:54:42;90705.28;;;13.96;39.41
34506;BME280;20748;42.632;23.198;2023-04-01T08:57:35;90705.66;;;13.95;38.61
34506;BME280;20748;42.632;23.198;2023-04-01T09:00:40;90711.28;;;13.97;39.58
34506;BME280;20748;42.632;23.198;2023-04-01T09:06:37;90713.19;;;14.23;38.46
34506;BME280;20748;42.632;23.198;2023-04-01T09:09:45;90711.78;;;14.30;38.54
34506;BME280;20748;42.632;23.198;2023-04-01T09:12:55;90712.13;;;14.28;38.62
34506;BME280;20748;42.632;23.198;2023-04-01T09:15:50;90714.25;;;14.19;38.25
34506;BME280;20748;42.632;23.198;2023-04-01T09:18:41;90708.03;;;14.04;39.36
34506;BME280;20748;42.632;23.198;2023-04-01T09:21:37;90710.00;;;14.10;39.37
34506;BME280;20748;42.632;23.198;2023-04-01T09:24:32;90702.06;;;14.07;39.59
34506;BME280;20748;42.632;23.198;2023-04-01T09:27:17;90695.22;;;13.99;40.68
34506;BME280;20748;42.632;23.198;2023-04-01T09:36:04;90689.53;;;14.20;41.02
34506;BME280;20748;42.632;23.198;2023-04-01T09:38:52;90691.69;;;14.14;41.24
34506;BME280;20748;42.632;23.198;2023-04-01T09:41:31;90673.31;;;13.87;42.05
34506;BME280;20748;42.632;23.198;2023-04-01T09:44:23;90661.75;;;14.15;41.59
34506;BME280;20748;42.632;23.198;2023-04-01T09:47:26;90664.34;;;13.88;42.05
34506;BME280;20748;42.632;23.198;2023-04-01T09:53:17;90653.38;;;13.82;43.46
34506;BME280;20748;42.632;23.198;2023-04-01T09:59:07;90634.09;;;13.94;43.82
34506;BME280;20748;42.632;23.198;2023-04-01T10:02:20;90636.63;;;14.14;44.81
34506;BME280;20748;42.632;23.198;2023-04-01T10:08:44;90629.03;;;14.09;42.25
34506;BME280;20748;42.632;23.198;2023-04-01T10:15:19;90624.41;;;14.26;42.09
34506;BME280;20748;42.632;23.198;2023-04-01T10:18:18;90609.72;;;14.21;42.01
34506;BME280;20748;42.632;23.198;2023-04-01T10:24:18;90593.09;;;14.36;41.90
34506;BME280;20748;42.632;23.198;2023-04-01T10:27:22;90602.25;;;14.23;42.29
34506;BME280;20748;42.632;23.198;2023-04-01T10:33:56;90594.94;;;14.36;41.36
34506;BME280;20748;42.632;23.198;2023-04-01T10:36:52;90586.88;;;14.52;42.42
34506;BME280;20748;42.632;23.198;2023-04-01T10:40:12;90573.81;;;14.56;41.88
34506;BME280;20748;42.632;23.198;2023-04-01T10:43:46;90575.50;;;14.41;41.49
34506;BME280;20748;42.632;23.198;2023-04-01T10:49:48;90572.03;;;14.33;40.91
34506;BME280;20748;42.632;23.198;2023-04-01T10:53:05;90564.03;;;14.53;40.76
34506;BME280;20748;42.632;23.198;2023-04-01T10:56:35;90560.94;;;14.47;41.48
34506;BME280;20748;42.632;23.198;2023-04-01T10:59:53;90551.19;;;14.44;41.68
34506;BME280;20748;42.632;23.198;2023-04-01T11:10:01;90545.25;;;14.50;41.85
34506;BME280;20748;42.632;23.198;2023-04-01T11:13:13;90554.66;;;14.52;41.98
34506;BME280;20748;42.632;23.198;2023-04-01T11:19:43;90569.50;;;14.40;42.89
34506;BME280;20748;42.632;23.198;2023-04-01T11:25:53;90599.19;;;14.17;47.29
34506;BME280;20748;42.632;23.198;2023-04-01T11:32:42;90633.50;;;13.81;50.16
34506;BME280;20748;42.632;23.198;2023-04-01T11:35:29;90672.66;;;13.71;54.40
34506;BME280;20748;42.632;23.198;2023-04-01T11:38:15;90708.41;;;13.20;60.38
34506;BME280;20748;42.632;23.198;2023-04-01T11:40:54;90780.63;;;12.65;71.46
34506;BME280;20748;42.632;23.198;2023-04-01T11:44:11;90785.28;;;12.07;81.61
34506;BME280;20748;42.632;23.198;2023-04-01T11:47:14;90789.47;;;11.23;88.01
34506;BME280;20748;42.632;23.198;2023-04-01T11:50:03;90796.69;;;11.01;89.57
34506;BME280;20748;42.632;23.198;2023-04-01T11:53:01;90811.34;;;11.06;92.07
34506;BME280;20748;42.632;23.198;2023-04-01T11:55:50;90798.44;;;10.84;95.34
34506;BME280;20748;42.632;23.198;2023-04-01T12:01:44;90791.06;;;10.74;100.00
34506;BME280;20748;42.632;23.198;2023-04-01T12:04:55;90787.56;;;10.32;100.00
34506;BME280;20748;42.632;23.198;2023-04-01T12:07:50;90781.25;;;9.96;100.00
34506;BME280;20748;42.632;23.198;2023-04-01T12:10:28;90777.53;;;9.85;100.00
34506;BME280;20748;42.632;23.198;2023-04-01T12:13:14;90788.13;;;9.67;100.00
34506;BME280;20748;42.632;23.198;2023-04-01T12:16:03;90786.59;;;9.66;100.00
34506;BME280;20748;42.632;23.198;2023-04-01T12:18:42;90768.97;;;9.50;100.00
34506;BME280;20748;42.632;23.198;2023-04-01T12:21:22;90772.19;;;9.69;100.00
34506;BME280;20748;42.632;23.198;2023-04-01T12:27:34;90780.88;;;9.39;100.00
34506;BME280;20748;42.632;23.198;2023-04-01T12:30:45;90777.72;;;9.67;100.00
34506;BME280;20748;42.632;23.198;2023-04-01T12:36:38;90803.00;;;9.66;100.00
34506;BME280;20748;42.632;23.198;2023-04-01T12:39:37;90805.56;;;9.33;100.00
34506;BME280;20748;42.632;23.198;2023-04-01T12:42:30;90788.91;;;9.34;100.00
34506;BME280;20748;42.632;23.198;2023-04-01T12:45:23;90779.44;;;9.29;100.00
34506;BME280;20748;42.632;23.198;2023-04-01T12:48:36;90775.00;;;9.30;100.00
34506;BME280;20748;42.632;23.198;2023-04-01T12:58:13;90754.00;;;9.13;100.00
34506;BME280;20748;42.632;23.198;2023-04-01T13:04:05;90753.22;;;9.13;100.00
34506;BME280;20748;42.632;23.198;2023-04-01T13:06:52;90717.97;;;9.03;100.00
34506;BME280;20748;42.632;23.198;2023-04-01T13:09:37;90703.06;;;8.91;100.00
34506;BME280;20748;42.632;23.198;2023-04-01T13:15:26;90711.56;;;9.00;100.00
34506;BME280;20748;42.632;23.198;2023-04-01T13:18:14;90711.69;;;9.04;100.00
34506;BME280;20748;42.632;23.198;2023-04-01T13:20:55;90693.41;;;9.25;100.00
34506;BME280;20748;42.632;23.198;2023-04-01T13:23:39;90705.75;;;9.50;96.44
34506;BME280;20748;42.632;23.198;2023-04-01T13:26:21;90692.09;;;9.65;99.60
34506;BME280;20748;42.632;23.198;2023-04-01T13:28:59;90702.50;;;9.78;94.25
34506;BME280;20748;42.632;23.198;2023-04-01T13:31:46;90698.09;;;10.03;93.39
34506;BME280;20748;42.632;23.198;2023-04-01T13:34:33;90692.56;;;10.05;85.64
34506;BME280;20748;42.632;23.198;2023-04-01T13:37:20;90690.16;;;10.12;84.10
34506;BME280;20748;42.632;23.198;2023-04-01T13:40:02;90686.91;;;10.15;85.07
34506;BME280;20748;42.632;23.198;2023-04-01T13:42:45;90681.13;;;10.22;83.62
34506;BME280;20748;42.632;23.198;2023-04-01T13:45:23;90671.44;;;10.35;83.97
34506;BME280;20748;42.632;23.198;2023-04-01T13:51:18;90650.50;;;10.85;87.24
34506;BME280;20748;42.632;23.198;2023-04-01T13:54:03;90651.56;;;11.12;84.09
34506;BME280;20748;42.632;23.198;2023-04-01T13:56:48;90652.94;;;11.38;79.69
34506;BME280;20748;42.632;23.198;2023-04-01T13:59:48;90641.84;;;11.41;76.92
34506;BME280;20748;42.632;23.198;2023-04-01T14:05:56;90627.16;;;11.37;72.83
34506;BME280;20748;42.632;23.198;2023-04-01T14:11:35;90619.09;;;11.26;73.85
34506;BME280;20748;42.632;23.198;2023-04-01T14:14:17;90612.91;;;11.18;73.22
34506;BME280;20748;42.632;23.198;2023-04-01T14:17:09;90628.75;;;11.25;73.67
34506;BME280;20748;42.632;23.198;2023-04-01T14:20:06;90625.41;;;11.25;71.72
34506;BME280;20748;42.632;23.198;2023-04-01T14:22:57;90612.34;;;11.25;73.93
34506;BME280;20748;42.632;23.198;2023-04-01T14:29:06;90610.16;;;11.27;73.89
34506;BME280;20748;42.632;23.198;2023-04-01T14:31:51;90593.22;;;11.21;74.44
34506;BME280;20748;42.632;23.198;2023-04-01T14:34:40;90600.31;;;11.36;75.25
34506;BME280;20748;42.632;23.198;2023-04-01T14:37:38;90586.06;;;11.50;73.28
34506;BME280;20748;42.632;23.198;2023-04-01T14:40:21;90578.41;;;11.57;71.08
34506;BME280;20748;42.632;23.198;2023-04-01T14:43:22;90581.59;;;11.66;72.87
34506;BME280;20748;42.632;23.198;2023-04-01T14:46:12;90585.53;;;11.76;71.56
34506;BME280;20748;42.632;23.198;2023-04-01T14:48:51;90569.78;;;11.73;73.55
34506;BME280;20748;42.632;23.198;2023-04-01T14:51:30;90559.16;;;11.81;71.71
34506;BME280;20748;42.632;23.198;2023-04-01T14:54:07;90555.41;;;11.99;72.94
34506;BME280;20748;42.632;23.198;2023-04-01T14:56:47;90547.97;;;12.17;72.95
34506;BME280;20748;42.632;23.198;2023-04-01T14:59:27;90551.47;;;12.25;71.10
34506;BME280;20748;42.632;23.198;2023-04-01T15:02:03;90581.09;;;12.13;72.63
34506;BME280;20748;42.632;23.198;2023-04-01T15:04:50;90573.13;;;12.05;71.83
34506;BME280;20748;42.632;23.198;2023-04-01T15:07:44;90582.06;;;12.04;71.43
34506;BME280;20748;42.632;23.198;2023-04-01T15:10:43;90579.94;;;12.10;68.98
34506;BME280;20748;42.632;23.198;2023-04-01T15:13:34;90598.06;;;12.03;70.06
34506;BME280;20748;42.632;23.198;2023-04-01T15:16:15;90609.47;;;12.11;65.15
34506;BME280;20748;42.632;23.198;2023-04-01T15:18:59;90612.50;;;11.97;65.10
34506;BME280;20748;42.632;23.198;2023-04-01T15:21:48;90615.78;;;11.93;67.12
34506;BME280;20748;42.632;23.198;2023-04-01T15:24:24;90636.44;;;11.82;66.36
34506;BME280;20748;42.632;23.198;2023-04-01T15:27:15;90639.31;;;11.77;67.52
34506;BME280;20748;42.632;23.198;2023-04-01T15:30:04;90639.00;;;11.63;68.95
34506;BME280;20748;42.632;23.198;2023-04-01T15:35:46;90639.47;;;11.68;68.51
34506;BME280;20748;42.632;23.198;2023-04-01T15:38:33;90643.97;;;11.68;67.13
34506;BME280;20748;42.632;23.198;2023-04-01T15:41:14;90652.22;;;11.70;66.97
34506;BME280;20748;42.632;23.198;2023-04-01T15:43:48;90655.94;;;11.69;67.03
34506;BME280;20748;42.632;23.198;2023-04-01T15:46:41;90661.06;;;11.81;66.87
34506;BME280;20748;42.632;23.198;2023-04-01T15:49:21;90677.94;;;11.84;66.06
34506;BME280;20748;42.632;23.198;2023-04-01T15:52:07;90699.94;;;11.83;71.43